Decoded Metar for ETSB (BUECHEL in GERMANY) (IATA:N/A) | Meteo·Mobile Aviation Weather
aviador You're here:

ETSB Decoded Metar

BUECHEL in GERMANY
Report Time2018-10-18 10:20:00
UTC Time2018-10-18 11:16:37
Flight Rules ifr IFR
Wind070° at 10 kt
W.Decomp.*RWY 03: 7.8 kt HW 6.3 kt RCW
W.Rank070° ranks 11
Current wind is above 070° avg. (6.6)
Visibility2500 m
Phenomena:Mist
Clouds:Broken 006 Hf
Expected CloudBase > 800 ft AGL from Temp-Dew spread
Ceiling600 ft
Temp13°C (ISA +1)
Dew Point11°C (88% RH)
AAT9.7°C
QNH1022 hPa
Density Alt1,611 ft
Elevation1,594 ft
Report Wrong Elevation
Raw Report
ETSB 181020Z 07010KT 2500 BR BKN006 13/11 Q1022 YLO YLO BECMG
GRN=

Extra information for ETSB:More info

Metar Taf Metar & Taf Last 4 Metars F.Rules Stats Wind Profile Meteogram Temp Stats Airport Information Weather charts Add Link Nearby VenuesMetar ALERT Operation Metar Decoded Social comments